createdAt,value
2019-01-12T00:01:05.184Z,10.03
2019-01-12T00:03:36.921Z,8.03
2019-01-12T00:06:08.656Z,9.47
2019-01-12T00:08:40.416Z,10.77
2019-01-12T00:11:12.241Z,9.47
2019-01-12T00:13:43.884Z,8.23
2019-01-12T00:16:15.527Z,8.27
2019-01-12T00:18:47.188Z,8.50
2019-01-12T00:21:18.793Z,7.47
2019-01-12T00:23:50.439Z,8.57
2019-01-12T00:26:22.072Z,8.40
2019-01-12T00:28:53.696Z,7.20
2019-01-12T00:31:25.333Z,8.60
2019-01-12T00:33:56.962Z,10.17
2019-01-12T00:36:28.589Z,8.63
2019-01-12T00:39:00.213Z,9.63
2019-01-12T00:41:31.833Z,7.63
2019-01-12T00:44:03.489Z,8.70
2019-01-12T00:46:35.115Z,9.10
2019-01-12T00:49:06.766Z,6.77
2019-01-12T00:51:38.389Z,9.07
2019-01-12T00:54:10.040Z,8.83
2019-01-12T00:56:41.652Z,7.97
2019-01-12T00:59:13.282Z,8.17
2019-01-12T01:01:44.898Z,7.87
2019-01-12T01:04:16.557Z,9.70
2019-01-12T01:06:48.211Z,5.90
2019-01-12T01:09:19.843Z,8.93
2019-01-12T01:11:51.453Z,8.33
2019-01-12T01:14:23.086Z,7.73
2019-01-12T01:16:54.797Z,7.20
2019-01-12T01:19:26.446Z,8.53
2019-01-12T01:21:58.100Z,6.93
2019-01-12T01:24:30.366Z,8.87
2019-01-12T01:27:02.003Z,7.17
2019-01-12T01:29:33.646Z,8.13
2019-01-12T01:32:05.290Z,6.63
2019-01-12T01:34:37.165Z,8.93
2019-01-12T01:37:08.797Z,10.10
2019-01-12T01:39:40.465Z,8.30
2019-01-12T01:42:12.092Z,7.37
2019-01-12T01:44:43.725Z,8.40
2019-01-12T01:47:15.346Z,8.07
2019-01-12T01:49:46.977Z,8.10
2019-01-12T01:52:18.613Z,9.07
2019-01-12T01:54:53.027Z,8.73
2019-01-12T01:57:23.785Z,7.63
2019-01-12T01:59:58.680Z,6.67
2019-01-12T02:02:30.365Z,9.30
2019-01-12T02:05:02.309Z,9.00
2019-01-12T02:07:34.037Z,8.43
2019-01-12T02:10:09.242Z,9.60
2019-01-12T02:12:40.962Z,8.57
2019-01-12T02:15:13.250Z,9.60
2019-01-12T02:17:45.277Z,10.17
2019-01-12T02:20:17.121Z,8.17
2019-01-12T02:22:48.745Z,8.60
2019-01-12T02:25:20.686Z,8.73
2019-01-12T02:27:52.325Z,8.83
2019-01-12T02:30:23.969Z,8.03
2019-01-12T02:32:56.531Z,8.03
2019-01-12T02:35:28.169Z,6.90
2019-01-12T02:37:59.779Z,8.53
2019-01-12T02:40:31.420Z,9.17
2019-01-12T02:43:03.228Z,8.57
2019-01-12T02:45:34.880Z,8.33
2019-01-12T02:48:06.519Z,10.47
2019-01-12T02:50:38.153Z,6.73
2019-01-12T02:53:09.780Z,8.03
2019-01-12T02:55:41.432Z,9.07
2019-01-12T02:58:13.056Z,7.27
2019-01-12T03:00:44.687Z,8.57
2019-01-12T03:03:16.315Z,8.30
2019-01-12T03:05:47.972Z,7.23
2019-01-12T03:08:19.705Z,7.13
2019-01-12T03:10:51.564Z,7.23
2019-01-12T03:13:23.189Z,7.97
2019-01-12T03:15:54.858Z,8.47
2019-01-12T03:18:26.482Z,8.23
2019-01-12T03:20:58.119Z,8.30
2019-01-12T03:23:29.749Z,7.40
2019-01-12T03:26:01.489Z,7.13
2019-01-12T03:28:33.132Z,8.07
2019-01-12T03:31:04.767Z,11.23
2019-01-12T03:33:36.496Z,6.87
2019-01-12T03:36:08.244Z,8.23
2019-01-12T03:38:39.972Z,6.13
2019-01-12T03:41:11.600Z,7.63
2019-01-12T03:43:43.232Z,6.57
2019-01-12T03:46:15.042Z,7.57
2019-01-12T03:48:46.682Z,8.03
2019-01-12T03:51:18.508Z,8.00
2019-01-12T03:53:50.133Z,7.57
2019-01-12T03:56:21.773Z,8.30
2019-01-12T03:58:53.391Z,8.67
2019-01-12T04:01:25.025Z,8.57
2019-01-12T04:03:56.638Z,7.13
2019-01-12T04:06:28.261Z,7.23
2019-01-12T04:08:59.881Z,6.10
2019-01-12T04:11:31.520Z,7.60
2019-01-12T04:14:03.474Z,7.63
2019-01-12T04:16:35.105Z,6.23
2019-01-12T04:19:06.724Z,6.57
2019-01-12T04:21:38.373Z,6.87
2019-01-12T04:24:10.002Z,7.17
2019-01-12T04:26:41.649Z,8.47
2019-01-12T04:29:14.462Z,6.17
2019-01-12T04:31:46.096Z,6.20
2019-01-12T04:34:17.709Z,7.27
2019-01-12T04:36:49.361Z,6.53
2019-01-12T04:39:20.998Z,7.30
2019-01-12T04:41:52.658Z,7.07
2019-01-12T04:44:24.262Z,6.77
2019-01-12T04:46:55.884Z,7.17
2019-01-12T04:49:27.510Z,6.97
2019-01-12T04:51:59.178Z,7.87
2019-01-12T04:54:30.832Z,7.20
2019-01-12T04:57:02.578Z,8.10
2019-01-12T04:59:34.203Z,6.87
2019-01-12T05:02:05.821Z,6.37
2019-01-12T05:04:37.471Z,6.67
2019-01-12T05:07:09.284Z,7.13
2019-01-12T05:09:40.905Z,6.77
2019-01-12T05:12:12.554Z,7.00
2019-01-12T05:14:44.197Z,6.83
2019-01-12T05:17:15.849Z,7.23
2019-01-12T05:19:47.470Z,6.97
2019-01-12T05:22:19.102Z,4.97
2019-01-12T05:24:50.721Z,5.63
2019-01-12T05:27:22.401Z,8.07
2019-01-12T05:29:54.031Z,5.77
2019-01-12T05:32:25.670Z,6.73
2019-01-12T05:34:57.735Z,7.63
2019-01-12T05:37:29.370Z,7.03
2019-01-12T05:40:01.015Z,8.07
2019-01-12T05:42:32.672Z,7.13
2019-01-12T05:45:04.708Z,8.40
2019-01-12T05:47:36.332Z,6.33
2019-01-12T05:50:09.678Z,7.60
2019-01-12T05:52:41.437Z,5.97
2019-01-12T05:55:13.069Z,6.33
2019-01-12T05:57:44.727Z,6.23
2019-01-12T06:00:20.289Z,5.33
2019-01-12T06:02:52.050Z,5.83
2019-01-12T06:05:23.668Z,5.77
2019-01-12T06:07:55.290Z,7.13
2019-01-12T06:10:26.909Z,6.07
2019-01-12T06:12:58.552Z,5.37
2019-01-12T06:15:30.193Z,6.03
2019-01-12T06:18:01.858Z,5.83
2019-01-12T06:20:33.468Z,5.40
2019-01-12T06:23:05.120Z,6.23
2019-01-12T06:25:36.744Z,5.40
2019-01-12T06:28:08.397Z,6.60
2019-01-12T06:30:40.749Z,7.97
2019-01-12T06:33:12.453Z,5.53
2019-01-12T06:35:44.084Z,6.50
2019-01-12T06:38:15.728Z,5.90
2019-01-12T06:40:47.377Z,5.40
2019-01-12T06:43:19.034Z,9.57
2019-01-12T06:45:50.652Z,6.57
2019-01-12T06:48:22.313Z,6.83
2019-01-12T06:50:53.920Z,6.97
2019-01-12T06:53:25.662Z,7.30
2019-01-12T06:55:57.414Z,6.70
2019-01-12T06:58:29.056Z,6.10
2019-01-12T07:01:00.673Z,6.67
2019-01-12T07:03:32.341Z,6.23
2019-01-12T07:06:03.960Z,6.07
2019-01-12T07:08:35.597Z,6.40
2019-01-12T07:11:07.219Z,6.17
2019-01-12T07:13:38.896Z,6.87
2019-01-12T07:16:10.531Z,5.50
2019-01-12T07:18:42.208Z,5.43
2019-01-12T07:21:13.905Z,6.13
2019-01-12T07:23:45.584Z,5.73
2019-01-12T07:26:17.696Z,5.97
2019-01-12T07:28:49.489Z,7.37
2019-01-12T07:31:21.120Z,6.07
2019-01-12T07:33:53.009Z,6.23
2019-01-12T07:36:24.741Z,6.40
2019-01-12T07:38:56.482Z,6.30
2019-01-12T07:41:28.121Z,6.53
2019-01-12T07:43:59.768Z,6.90
2019-01-12T07:46:31.797Z,5.90
2019-01-12T07:49:03.457Z,5.77
2019-01-12T07:51:35.076Z,6.77
2019-01-12T07:54:06.717Z,5.37
2019-01-12T07:56:38.346Z,5.30
2019-01-12T07:59:10.014Z,5.87
2019-01-12T08:01:42.107Z,4.63
2019-01-12T08:04:13.928Z,5.07
2019-01-12T08:06:45.657Z,5.40
2019-01-12T08:09:17.337Z,6.20
2019-01-12T08:11:48.964Z,7.93
2019-01-12T08:14:20.617Z,6.23
2019-01-12T08:16:52.257Z,5.40
2019-01-12T08:19:24.010Z,5.53
2019-01-12T08:21:55.685Z,4.97
2019-01-12T08:24:27.353Z,5.37
2019-01-12T08:26:58.989Z,4.47
2019-01-12T08:29:30.682Z,5.43
2019-01-12T08:32:02.410Z,4.67
2019-01-12T08:34:34.090Z,4.40
2019-01-12T08:37:05.724Z,6.67
2019-01-12T08:39:37.356Z,4.13
2019-01-12T08:42:09.105Z,5.60
2019-01-12T08:44:40.752Z,3.73
2019-01-12T08:47:12.385Z,4.37
2019-01-12T08:49:44.034Z,4.70
2019-01-12T08:52:15.656Z,4.00
2019-01-12T08:54:47.428Z,3.17
2019-01-12T08:57:19.060Z,3.57
2019-01-12T08:59:50.704Z,3.30
2019-01-12T09:02:22.357Z,3.47
2019-01-12T09:04:53.999Z,3.40
2019-01-12T09:07:25.630Z,3.03
2019-01-12T09:09:57.261Z,3.83
2019-01-12T09:12:28.884Z,3.47
2019-01-12T09:15:00.557Z,3.70
2019-01-12T09:17:32.209Z,3.60
2019-01-12T09:20:05.313Z,4.10
2019-01-12T09:22:36.945Z,3.40
2019-01-12T09:25:09.658Z,4.27
2019-01-12T09:27:41.393Z,3.80
2019-01-12T09:30:15.646Z,4.13
2019-01-12T09:32:47.620Z,4.03
2019-01-12T09:35:19.406Z,3.87
2019-01-12T09:37:51.136Z,4.13
2019-01-12T09:40:22.881Z,4.30
2019-01-12T09:42:54.507Z,4.13
2019-01-12T09:45:26.169Z,3.90
2019-01-12T09:47:57.797Z,4.07
2019-01-12T09:50:29.439Z,3.73
2019-01-12T09:53:01.049Z,3.63
2019-01-12T09:55:32.682Z,2.60
2019-01-12T09:58:04.304Z,3.37
2019-01-12T10:00:36.037Z,2.87
2019-01-12T10:03:07.662Z,2.93
2019-01-12T10:05:39.417Z,2.87
2019-01-12T10:08:11.041Z,3.07
2019-01-12T10:10:42.678Z,2.90
2019-01-12T10:13:14.293Z,2.77
2019-01-12T10:15:45.953Z,2.40
2019-01-12T10:18:17.580Z,2.17
2019-01-12T10:20:49.289Z,2.53
2019-01-12T10:23:20.926Z,2.80
2019-01-12T10:25:52.597Z,2.37
2019-01-12T10:28:24.217Z,2.60
2019-01-12T10:30:55.880Z,3.73
2019-01-12T10:33:27.517Z,2.70
2019-01-12T10:35:59.153Z,2.17
2019-01-12T10:38:30.776Z,3.70
2019-01-12T10:41:02.429Z,2.90
2019-01-12T10:43:34.136Z,3.77
2019-01-12T10:46:05.869Z,2.70
2019-01-12T10:48:37.510Z,2.80
2019-01-12T10:51:09.238Z,3.27
2019-01-12T10:53:40.873Z,2.13
2019-01-12T10:56:12.523Z,3.20
2019-01-12T10:58:44.232Z,2.63
2019-01-12T11:01:15.965Z,2.53
2019-01-12T11:03:47.716Z,2.93
2019-01-12T11:06:19.369Z,2.77
2019-01-12T11:08:51.005Z,2.47
2019-01-12T11:11:22.768Z,3.10
2019-01-12T11:13:54.401Z,3.60
2019-01-12T11:16:26.162Z,4.70
2019-01-12T11:18:57.799Z,4.07
2019-01-12T11:21:29.425Z,4.80
2019-01-12T11:24:01.084Z,4.83
2019-01-12T11:26:32.730Z,3.73
2019-01-12T11:29:04.350Z,5.10
2019-01-12T11:31:36.023Z,4.80
2019-01-12T11:34:07.689Z,4.70
2019-01-12T11:36:39.475Z,3.67
2019-01-12T11:39:11.091Z,3.80
2019-01-12T11:41:42.745Z,3.80
2019-01-12T11:44:14.483Z,3.70
2019-01-12T11:46:46.141Z,5.23
2019-01-12T11:49:17.758Z,2.90
2019-01-12T11:51:49.412Z,3.77
2019-01-12T11:54:21.033Z,3.57
2019-01-12T11:56:52.673Z,3.10
2019-01-12T11:59:24.296Z,2.90
2019-01-12T12:01:55.961Z,3.13
2019-01-12T12:04:27.602Z,2.93
2019-01-12T12:06:59.248Z,2.40
2019-01-12T12:09:30.871Z,2.83
2019-01-12T12:12:02.956Z,2.97
2019-01-12T12:14:34.594Z,2.70
2019-01-12T12:17:06.246Z,2.37
2019-01-12T12:19:37.988Z,2.50
2019-01-12T12:22:09.627Z,2.60
2019-01-12T12:24:41.253Z,2.50
2019-01-12T12:27:12.901Z,2.90
2019-01-12T12:29:44.537Z,2.13
2019-01-12T12:32:16.673Z,2.23
2019-01-12T12:34:48.333Z,2.87
2019-01-12T12:37:20.002Z,2.10
2019-01-12T12:39:51.626Z,2.10
2019-01-12T12:42:23.280Z,2.27
2019-01-12T12:44:54.902Z,2.50
2019-01-12T12:47:26.556Z,2.13
2019-01-12T12:49:58.182Z,2.77
2019-01-12T12:52:29.839Z,2.53
2019-01-12T12:55:01.474Z,2.60
2019-01-12T12:57:33.251Z,3.03
2019-01-12T13:00:08.388Z,2.87
2019-01-12T13:02:40.057Z,2.93
2019-01-12T13:05:11.973Z,3.40
2019-01-12T13:07:43.835Z,3.50
2019-01-12T13:10:17.536Z,3.00
2019-01-12T13:12:49.381Z,2.67
2019-01-12T13:15:21.201Z,3.80
2019-01-12T13:17:52.944Z,2.80
2019-01-12T13:20:24.579Z,3.20
2019-01-12T13:22:56.216Z,3.13
2019-01-12T13:25:27.845Z,3.53
2019-01-12T13:27:59.585Z,3.30
2019-01-12T13:30:31.328Z,3.60
2019-01-12T13:33:03.064Z,3.53
2019-01-12T13:35:34.774Z,3.27
2019-01-12T13:38:06.592Z,3.70
2019-01-12T13:40:38.217Z,4.47
2019-01-12T13:43:09.876Z,4.00
2019-01-12T13:45:41.504Z,4.43
2019-01-12T13:48:13.147Z,4.50
2019-01-12T13:50:44.771Z,4.53
2019-01-12T13:53:16.625Z,4.70
2019-01-12T13:55:48.250Z,5.50
2019-01-12T13:58:19.921Z,4.53
2019-01-12T14:00:51.563Z,4.57
2019-01-12T14:03:23.198Z,5.27
2019-01-12T14:05:54.829Z,5.37
2019-01-12T14:08:26.457Z,5.90
2019-01-12T14:10:58.092Z,5.73
2019-01-12T14:13:29.733Z,5.63
2019-01-12T14:16:01.457Z,5.80
2019-01-12T14:18:33.092Z,5.87
2019-01-12T14:21:04.817Z,6.63
2019-01-12T14:23:36.458Z,6.50
2019-01-12T14:26:08.112Z,5.90
2019-01-12T14:28:39.749Z,5.27
2019-01-12T14:31:11.378Z,10.57
2019-01-12T14:33:43.035Z,7.00
2019-01-12T14:36:14.750Z,5.57
2019-01-12T14:38:46.392Z,5.60
2019-01-12T14:41:18.021Z,7.80
2019-01-12T14:43:49.663Z,5.70
2019-01-12T14:46:21.288Z,5.93
2019-01-12T14:48:52.926Z,7.20
2019-01-12T14:51:24.556Z,5.83
2019-01-12T14:53:56.209Z,6.40
2019-01-12T14:56:27.833Z,5.87
2019-01-12T14:58:59.474Z,6.60
2019-01-12T15:01:31.116Z,7.43
2019-01-12T15:04:03.249Z,6.00
2019-01-12T15:06:34.878Z,7.27
2019-01-12T15:09:06.982Z,6.60
2019-01-12T15:11:38.603Z,6.57
2019-01-12T15:14:10.233Z,7.20
2019-01-12T15:16:41.848Z,13.30
2019-01-12T15:19:14.273Z,6.97
2019-01-12T15:21:45.898Z,7.80
2019-01-12T15:24:17.563Z,25.27
2019-01-12T15:26:49.193Z,7.83
2019-01-12T15:29:20.932Z,7.67
2019-01-12T15:31:52.717Z,8.00
2019-01-12T15:34:24.355Z,7.73
2019-01-12T15:36:55.982Z,7.53
2019-01-12T15:39:27.866Z,9.30
2019-01-12T15:41:59.490Z,7.70
2019-01-12T15:44:31.116Z,7.63
2019-01-12T15:47:02.745Z,8.93
2019-01-12T15:49:34.482Z,8.17
2019-01-12T15:52:06.099Z,7.63
2019-01-12T15:54:37.737Z,8.70
2019-01-12T15:57:09.358Z,9.23
2019-01-12T15:59:40.988Z,7.90
2019-01-12T16:02:12.713Z,8.77
2019-01-12T16:04:44.344Z,7.50
2019-01-12T16:07:15.994Z,7.70
2019-01-12T16:09:47.737Z,8.67
2019-01-12T16:12:19.359Z,8.60
2019-01-12T16:14:50.999Z,8.27
2019-01-12T16:17:22.634Z,7.50
2019-01-12T16:19:54.280Z,7.00
2019-01-12T16:22:25.909Z,8.97
2019-01-12T16:24:57.590Z,8.27
2019-01-12T16:27:29.208Z,7.40
2019-01-12T16:30:01.065Z,9.43
2019-01-12T16:32:32.704Z,8.77
2019-01-12T16:35:04.738Z,8.40
2019-01-12T16:37:36.470Z,8.17
2019-01-12T16:40:11.001Z,8.27
2019-01-12T16:42:42.674Z,8.03
2019-01-12T16:45:14.681Z,8.03
2019-01-12T16:47:46.335Z,8.03
2019-01-12T16:50:18.001Z,8.10
2019-01-12T16:52:49.628Z,7.30
2019-01-12T16:55:21.262Z,8.27
2019-01-12T16:57:52.878Z,7.97
2019-01-12T17:00:26.749Z,7.80
2019-01-12T17:02:58.908Z,8.57
2019-01-12T17:05:30.537Z,9.10
2019-01-12T17:08:02.172Z,10.03
2019-01-12T17:10:33.813Z,8.00
2019-01-12T17:13:05.465Z,10.43
2019-01-12T17:15:37.128Z,10.83
2019-01-12T17:18:08.781Z,10.33
2019-01-12T17:20:40.442Z,9.23
2019-01-12T17:23:12.081Z,12.00
2019-01-12T17:25:43.708Z,13.23
2019-01-12T17:28:15.428Z,12.90
2019-01-12T17:30:47.078Z,12.17
2019-01-12T17:33:18.729Z,11.97
2019-01-12T17:35:50.464Z,14.17
2019-01-12T17:38:22.202Z,12.43
2019-01-12T17:40:53.886Z,9.97
2019-01-12T17:43:25.617Z,10.23
2019-01-12T17:45:57.273Z,11.63
2019-01-12T17:48:28.922Z,12.33
2019-01-12T17:51:00.568Z,11.77
2019-01-12T17:53:32.209Z,13.03
2019-01-12T17:56:04.271Z,12.47
2019-01-12T17:58:35.902Z,12.50
2019-01-12T18:01:07.629Z,13.20
2019-01-12T18:03:39.248Z,12.30
2019-01-12T18:06:11.000Z,15.67
2019-01-12T18:08:42.618Z,15.60
2019-01-12T18:11:14.276Z,14.67
2019-01-12T18:13:45.933Z,15.40
2019-01-12T18:16:17.594Z,14.70
2019-01-12T18:18:49.212Z,16.50
2019-01-12T18:21:20.985Z,16.63
2019-01-12T18:23:52.616Z,15.33
2019-01-12T18:26:24.249Z,16.20
2019-01-12T18:28:55.886Z,16.27
2019-01-12T18:31:27.542Z,15.77
2019-01-12T18:33:59.169Z,17.13
2019-01-12T18:36:30.814Z,17.23
2019-01-12T18:39:05.113Z,17.30
2019-01-12T18:41:36.770Z,21.27
2019-01-12T18:44:08.392Z,27.10
2019-01-12T18:46:40.038Z,23.17
2019-01-12T18:49:11.666Z,18.10
2019-01-12T18:51:43.305Z,18.07
2019-01-12T18:54:14.944Z,17.30
2019-01-12T18:56:46.568Z,15.90
2019-01-12T18:59:18.195Z,18.07
2019-01-12T19:01:49.892Z,29.13
2019-01-12T19:04:21.510Z,30.70
2019-01-12T19:06:53.253Z,32.60
2019-01-12T19:09:24.880Z,29.63
2019-01-12T19:11:56.518Z,24.23
2019-01-12T19:14:28.143Z,22.83
2019-01-12T19:16:59.782Z,25.87
2019-01-12T19:19:31.454Z,18.77
2019-01-12T19:22:03.314Z,20.00
2019-01-12T19:24:34.941Z,19.30
2019-01-12T19:27:06.578Z,16.43
2019-01-12T19:29:38.190Z,15.80
2019-01-12T19:32:09.846Z,13.80
2019-01-12T19:34:41.487Z,13.93
2019-01-12T19:37:13.137Z,13.87
2019-01-12T19:39:44.860Z,13.20
2019-01-12T19:42:16.502Z,15.97
2019-01-12T19:44:48.127Z,14.47
2019-01-12T19:47:19.766Z,12.20
2019-01-12T19:49:51.382Z,13.53
2019-01-12T19:52:23.026Z,13.87
2019-01-12T19:54:54.678Z,14.17
2019-01-12T19:57:26.322Z,14.50
2019-01-12T19:59:57.946Z,14.93
2019-01-12T20:02:29.610Z,13.43
2019-01-12T20:05:01.250Z,12.97
2019-01-12T20:07:32.927Z,14.40
2019-01-12T20:10:05.812Z,13.53
2019-01-12T20:12:37.482Z,12.97
2019-01-12T20:15:13.584Z,12.83
2019-01-12T20:17:45.391Z,13.60
2019-01-12T20:20:17.233Z,12.50
2019-01-12T20:22:50.257Z,14.73
2019-01-12T20:25:28.861Z,12.17
2019-01-12T20:28:12.521Z,12.23
2019-01-12T20:31:27.726Z,11.70
2019-01-12T20:34:28.670Z,11.93
2019-01-12T20:37:25.584Z,12.03
2019-01-12T20:40:38.257Z,12.23
2019-01-12T20:43:46.709Z,12.40
2019-01-12T20:46:54.503Z,8.93
2019-01-12T20:49:43.861Z,8.90
2019-01-12T20:52:51.369Z,8.53
2019-01-12T20:55:37.041Z,10.50
2019-01-12T20:58:44.026Z,8.40
2019-01-12T21:01:56.493Z,7.87
2019-01-12T21:04:51.472Z,6.90
2019-01-12T21:07:35.369Z,6.53
2019-01-12T21:10:50.858Z,8.43
2019-01-12T21:13:37.134Z,6.47
2019-01-12T21:16:13.329Z,6.87
2019-01-12T21:18:44.967Z,7.43
2019-01-12T21:21:16.604Z,7.40
2019-01-12T21:23:48.226Z,7.63
2019-01-12T21:26:19.858Z,6.13
2019-01-12T21:28:51.489Z,6.53
2019-01-12T21:31:23.125Z,6.80
2019-01-12T21:33:54.771Z,8.20
2019-01-12T21:36:26.393Z,7.07
2019-01-12T21:38:58.026Z,7.40
2019-01-12T21:41:29.657Z,6.93
2019-01-12T21:44:01.397Z,7.20
2019-01-12T21:46:33.046Z,6.80
2019-01-12T21:49:04.673Z,6.40
2019-01-12T21:51:36.308Z,6.37
2019-01-12T21:54:07.935Z,7.60
2019-01-12T21:56:39.589Z,7.47
2019-01-12T21:59:11.227Z,7.67
2019-01-12T22:01:42.980Z,7.50
2019-01-12T22:04:14.601Z,7.63
2019-01-12T22:06:46.243Z,6.43
2019-01-12T22:09:17.865Z,7.80
2019-01-12T22:11:50.005Z,6.37
2019-01-12T22:14:21.624Z,7.00
2019-01-12T22:16:53.273Z,7.50
2019-01-12T22:19:24.914Z,7.07
2019-01-12T22:21:56.545Z,6.47
2019-01-12T22:24:28.177Z,4.90
2019-01-12T22:26:59.822Z,5.23
2019-01-12T22:29:31.445Z,5.07
2019-01-12T22:32:03.203Z,4.40
2019-01-12T22:34:34.841Z,3.60
2019-01-12T22:37:06.487Z,4.27
2019-01-12T22:39:38.210Z,4.23
2019-01-12T22:42:09.844Z,4.33
2019-01-12T22:44:41.468Z,3.50
2019-01-12T22:47:13.118Z,3.80
2019-01-12T22:49:44.760Z,3.63
2019-01-12T22:52:16.422Z,3.37
2019-01-12T22:54:48.033Z,3.27
2019-01-12T22:57:19.665Z,3.17
2019-01-12T22:59:56.937Z,3.07
2019-01-12T23:02:25.022Z,3.37
2019-01-12T23:04:56.654Z,3.37
2019-01-12T23:07:28.286Z,3.10
2019-01-12T23:09:59.913Z,3.10
2019-01-12T23:12:31.539Z,3.43
2019-01-12T23:15:04.174Z,3.37
2019-01-12T23:17:35.825Z,3.13
2019-01-12T23:20:07.662Z,2.77
2019-01-12T23:22:39.396Z,3.23
2019-01-12T23:25:11.118Z,3.30
2019-01-12T23:27:43.004Z,3.40
2019-01-12T23:30:15.037Z,3.23
2019-01-12T23:32:46.741Z,3.70
2019-01-12T23:35:18.350Z,3.40
2019-01-12T23:37:50.005Z,2.83
2019-01-12T23:40:21.717Z,3.13
2019-01-12T23:42:53.341Z,3.30
2019-01-12T23:45:24.953Z,3.57
2019-01-12T23:47:56.624Z,3.37
2019-01-12T23:50:28.288Z,3.10
2019-01-12T23:53:00.019Z,3.13
2019-01-12T23:55:31.644Z,3.90
2019-01-12T23:58:03.490Z,3.27
